sensor_id;sensor_type;location;lat;lon;timestamp;pressure;altitude;pressure_sealevel;temperature;humidity
82657;BME280;72357;52.110;5.252;2023-08-31T00:00:10;100788.0;;;16.05;64.08
82657;BME280;72357;52.110;5.252;2023-08-31T00:01:48;100791.0;;;16.09;64.19
82657;BME280;72357;52.110;5.252;2023-08-31T00:03:24;100794.0;;;16.02;64.39
82657;BME280;72357;52.110;5.252;2023-08-31T00:06:36;100793.0;;;15.97;64.55
82657;BME280;72357;52.110;5.252;2023-08-31T00:08:12;100795.0;;;16.13;64.17
82657;BME280;72357;52.110;5.252;2023-08-31T00:09:48;100793.0;;;16.18;63.98
82657;BME280;72357;52.110;5.252;2023-08-31T00:13:00;100794.0;;;16.11;64.36
82657;BME280;72357;52.110;5.252;2023-08-31T00:14:36;100788.0;;;16.2;64.13
82657;BME280;72357;52.110;5.252;2023-08-31T00:16:12;100787.0;;;16.09;64.47
82657;BME280;72357;52.110;5.252;2023-08-31T00:17:49;100782.0;;;15.98;64.88
82657;BME280;72357;52.110;5.252;2023-08-31T00:21:02;100774.0;;;16.02;64.91
82657;BME280;72357;52.110;5.252;2023-08-31T00:22:38;100775.0;;;15.99;64.97
82657;BME280;72357;52.110;5.252;2023-08-31T00:24:14;100775.0;;;16.2;64.33
82657;BME280;72357;52.110;5.252;2023-08-31T00:27:27;100777.0;;;15.99;64.78
82657;BME280;72357;52.110;5.252;2023-08-31T00:29:03;100772.0;;;16.02;64.81
82657;BME280;72357;52.110;5.252;2023-08-31T00:30:39;100766.0;;;16.11;64.67
82657;BME280;72357;52.110;5.252;2023-08-31T00:33:52;100773.0;;;16.15;64.62
82657;BME280;72357;52.110;5.252;2023-08-31T00:35:28;100778.0;;;15.87;65.55
82657;BME280;72357;52.110;5.252;2023-08-31T00:37:04;100780.0;;;16.11;64.97
82657;BME280;72357;52.110;5.252;2023-08-31T00:38:41;100780.0;;;16.22;64.52
82657;BME280;72357;52.110;5.252;2023-08-31T00:41:53;100777.0;;;16.31;64.24
82657;BME280;72357;52.110;5.252;2023-08-31T00:43:30;100774.0;;;16.28;64.33
82657;BME280;72357;52.110;5.252;2023-08-31T00:45:08;100778.0;;;16.4;64.52
82657;BME280;72357;52.110;5.252;2023-08-31T00:48:21;100773.0;;;16.55;64.03
82657;BME280;72357;52.110;5.252;2023-08-31T00:49:57;100769.0;;;16.52;64.25
82657;BME280;72357;52.110;5.252;2023-08-31T00:51:33;100769.0;;;16.66;63.72
82657;BME280;72357;52.110;5.252;2023-08-31T00:54:47;100768.0;;;16.43;64.77
82657;BME280;72357;52.110;5.252;2023-08-31T00:56:24;100773.0;;;16.43;65.02
82657;BME280;72357;52.110;5.252;2023-08-31T00:58:00;100778.0;;;16.46;65.05
82657;BME280;72357;52.110;5.252;2023-08-31T00:59:36;100781.0;;;16.54;64.83
82657;BME280;72357;52.110;5.252;2023-08-31T01:03:06;100782.0;;;16.56;64.91
82657;BME280;72357;52.110;5.252;2023-08-31T01:04:55;100780.0;;;16.47;65.59
82657;BME280;72357;52.110;5.252;2023-08-31T01:06:47;100782.0;;;16.66;65.41
82657;BME280;72357;52.110;5.252;2023-08-31T01:08:38;100780.0;;;16.84;65.19
82657;BME280;72357;52.110;5.252;2023-08-31T01:10:25;100780.0;;;16.88;65.28
82657;BME280;72357;52.110;5.252;2023-08-31T01:13:51;100780.0;;;17.02;64.72
82657;BME280;72357;52.110;5.252;2023-08-31T01:15:39;100780.0;;;17.13;64.37
82657;BME280;72357;52.110;5.252;2023-08-31T01:17:17;100775.0;;;17.18;64.33
82657;BME280;72357;52.110;5.252;2023-08-31T01:18:56;100770.0;;;17.34;63.68
82657;BME280;72357;52.110;5.252;2023-08-31T01:20:37;100762.0;;;17.27;63.95
82657;BME280;72357;52.110;5.252;2023-08-31T01:24:08;100765.0;;;17.18;64.33
82657;BME280;72357;52.110;5.252;2023-08-31T01:25:46;100762.0;;;17.09;64.72
82657;BME280;72357;52.110;5.252;2023-08-31T01:27:23;100765.0;;;17.12;64.52
82657;BME280;72357;52.110;5.252;2023-08-31T01:28:59;100763.0;;;17.27;63.7
82657;BME280;72357;52.110;5.252;2023-08-31T01:32:12;100769.0;;;17.14;64.14
82657;BME280;72357;52.110;5.252;2023-08-31T01:33:48;100772.0;;;17.13;64.23
82657;BME280;72357;52.110;5.252;2023-08-31T01:35:25;100776.0;;;16.95;64.89
82657;BME280;72357;52.110;5.252;2023-08-31T01:39:03;100774.0;;;17.09;64.58
82657;BME280;72357;52.110;5.252;2023-08-31T01:40:45;100775.0;;;17.07;64.62
82657;BME280;72357;52.110;5.252;2023-08-31T01:42:26;100773.0;;;17.23;64.08
82657;BME280;72357;52.110;5.252;2023-08-31T01:44:05;100772.0;;;17.07;64.55
82657;BME280;72357;52.110;5.252;2023-08-31T01:45:45;100773.0;;;17.06;64.69
82657;BME280;72357;52.110;5.252;2023-08-31T01:48:59;100769.0;;;16.96;65.16
82657;BME280;72357;52.110;5.252;2023-08-31T01:50:35;100769.0;;;17.02;65.06
82657;BME280;72357;52.110;5.252;2023-08-31T01:52:11;100770.0;;;17.12;64.73
82657;BME280;72357;52.110;5.252;2023-08-31T01:55:24;100764.0;;;17.2;64.36
82657;BME280;72357;52.110;5.252;2023-08-31T01:57:00;100764.0;;;17.31;63.89
82657;BME280;72357;52.110;5.252;2023-08-31T01:58:36;100768.0;;;17.16;64.38
82657;BME280;72357;52.110;5.252;2023-08-31T02:01:52;100771.0;;;17.05;64.84
82657;BME280;72357;52.110;5.252;2023-08-31T02:03:28;100769.0;;;17.02;65.22
82657;BME280;72357;52.110;5.252;2023-08-31T02:05:05;100772.0;;;17.25;64.44
82657;BME280;72357;52.110;5.252;2023-08-31T02:06:41;100770.0;;;17.29;64.47
82657;BME280;72357;52.110;5.252;2023-08-31T02:09:53;100767.0;;;17.25;64.75
82657;BME280;72357;52.110;5.252;2023-08-31T02:11:30;100766.0;;;17.34;64.58
82657;BME280;72357;52.110;5.252;2023-08-31T02:13:06;100775.0;;;17.43;64.39
82657;BME280;72357;52.110;5.252;2023-08-31T02:16:18;100782.0;;;17.37;64.59
82657;BME280;72357;52.110;5.252;2023-08-31T02:17:54;100784.0;;;17.25;64.85
82657;BME280;72357;52.110;5.252;2023-08-31T02:19:30;100792.0;;;17.38;64.64
82657;BME280;72357;52.110;5.252;2023-08-31T02:22:42;100792.0;;;17.5;64.19
82657;BME280;72357;52.110;5.252;2023-08-31T02:24:19;100794.0;;;17.41;64.63
82657;BME280;72357;52.110;5.252;2023-08-31T02:25:55;100793.0;;;17.62;64.08
82657;BME280;72357;52.110;5.252;2023-08-31T02:27:32;100792.0;;;17.68;63.91
82657;BME280;72357;52.110;5.252;2023-08-31T02:30:45;100790.0;;;17.75;63.72
82657;BME280;72357;52.110;5.252;2023-08-31T02:32:22;100789.0;;;17.72;63.83
82657;BME280;72357;52.110;5.252;2023-08-31T02:33:58;100791.0;;;17.7;63.8
82657;BME280;72357;52.110;5.252;2023-08-31T02:37:10;100792.0;;;17.61;63.9
82657;BME280;72357;52.110;5.252;2023-08-31T02:38:46;100792.0;;;17.5;64.25
82657;BME280;72357;52.110;5.252;2023-08-31T02:40:23;100791.0;;;17.5;63.99
82657;BME280;72357;52.110;5.252;2023-08-31T02:43:35;100786.0;;;17.59;63.89
82657;BME280;72357;52.110;5.252;2023-08-31T02:45:11;100787.0;;;17.47;64.16
82657;BME280;72357;52.110;5.252;2023-08-31T02:46:47;100784.0;;;17.64;63.68
82657;BME280;72357;52.110;5.252;2023-08-31T02:48:23;100780.0;;;17.77;62.81
82657;BME280;72357;52.110;5.252;2023-08-31T02:51:35;100782.0;;;17.75;63.26
82657;BME280;72357;52.110;5.252;2023-08-31T02:53:11;100778.0;;;17.75;63.29
82657;BME280;72357;52.110;5.252;2023-08-31T02:54:48;100780.0;;;17.53;63.52
82657;BME280;72357;52.110;5.252;2023-08-31T02:58:01;100781.0;;;17.63;63.49
82657;BME280;72357;52.110;5.252;2023-08-31T02:59:37;100780.0;;;17.55;63.61
82657;BME280;72357;52.110;5.252;2023-08-31T03:01:13;100778.0;;;17.62;63.59
82657;BME280;72357;52.110;5.252;2023-08-31T03:04:26;100776.0;;;17.56;63.67
82657;BME280;72357;52.110;5.252;2023-08-31T03:06:02;100783.0;;;17.59;63.47
82657;BME280;72357;52.110;5.252;2023-08-31T03:07:38;100781.0;;;17.73;63.15
82657;BME280;72357;52.110;5.252;2023-08-31T03:10:50;100782.0;;;17.61;63.58
82657;BME280;72357;52.110;5.252;2023-08-31T03:12:26;100776.0;;;17.61;63.27
82657;BME280;72357;52.110;5.252;2023-08-31T03:14:02;100778.0;;;17.66;63.12
82657;BME280;72357;52.110;5.252;2023-08-31T03:15:38;100780.0;;;17.61;63.37
82657;BME280;72357;52.110;5.252;2023-08-31T03:18:51;100780.0;;;17.66;63.29
82657;BME280;72357;52.110;5.252;2023-08-31T03:20:27;100780.0;;;17.7;63.05
82657;BME280;72357;52.110;5.252;2023-08-31T03:22:03;100777.0;;;17.61;63.48
82657;BME280;72357;52.110;5.252;2023-08-31T03:25:15;100784.0;;;17.71;63.06
82657;BME280;72357;52.110;5.252;2023-08-31T03:26:51;100787.0;;;17.56;63.29
82657;BME280;72357;52.110;5.252;2023-08-31T03:28:27;100786.0;;;17.63;63.34
82657;BME280;72357;52.110;5.252;2023-08-31T03:31:40;100789.0;;;17.82;62.72
82657;BME280;72357;52.110;5.252;2023-08-31T03:33:16;100786.0;;;17.54;63.48
82657;BME280;72357;52.110;5.252;2023-08-31T03:34:53;100791.0;;;17.52;63.49
82657;BME280;72357;52.110;5.252;2023-08-31T03:36:29;100791.0;;;17.5;63.54
82657;BME280;72357;52.110;5.252;2023-08-31T03:39:41;100791.0;;;17.56;63.5
82657;BME280;72357;52.110;5.252;2023-08-31T03:41:17;100790.0;;;17.57;63.48
82657;BME280;72357;52.110;5.252;2023-08-31T03:42:53;100799.0;;;17.34;63.82
82657;BME280;72357;52.110;5.252;2023-08-31T03:46:05;100806.0;;;17.39;63.98
82657;BME280;72357;52.110;5.252;2023-08-31T03:47:42;100808.0;;;17.55;63.45
82657;BME280;72357;52.110;5.252;2023-08-31T03:49:18;100805.0;;;17.5;63.7
82657;BME280;72357;52.110;5.252;2023-08-31T03:52:31;100806.0;;;17.52;63.78
82657;BME280;72357;52.110;5.252;2023-08-31T03:54:07;100809.0;;;17.5;63.83
82657;BME280;72357;52.110;5.252;2023-08-31T03:55:43;100815.0;;;17.82;63.0
82657;BME280;72357;52.110;5.252;2023-08-31T03:58:55;100812.0;;;17.79;63.03
82657;BME280;72357;52.110;5.252;2023-08-31T04:00:31;100821.0;;;17.54;63.61
82657;BME280;72357;52.110;5.252;2023-08-31T04:02:08;100823.0;;;17.66;63.63
82657;BME280;72357;52.110;5.252;2023-08-31T04:03:44;100824.0;;;17.68;63.57
82657;BME280;72357;52.110;5.252;2023-08-31T04:06:56;100822.0;;;17.46;64.23
82657;BME280;72357;52.110;5.252;2023-08-31T04:08:32;100832.0;;;17.46;64.48
82657;BME280;72357;52.110;5.252;2023-08-31T04:10:09;100825.0;;;17.31;64.86
82657;BME280;72357;52.110;5.252;2023-08-31T04:13:22;100823.0;;;17.45;64.48
82657;BME280;72357;52.110;5.252;2023-08-31T04:14:58;100823.0;;;17.66;63.78
82657;BME280;72357;52.110;5.252;2023-08-31T04:16:35;100826.0;;;17.68;63.75
82657;BME280;72357;52.110;5.252;2023-08-31T04:19:47;100825.0;;;17.75;63.48
82657;BME280;72357;52.110;5.252;2023-08-31T04:21:23;100820.0;;;17.66;63.88
82657;BME280;72357;52.110;5.252;2023-08-31T04:22:59;100825.0;;;17.71;63.78
82657;BME280;72357;52.110;5.252;2023-08-31T04:24:35;100822.0;;;17.8;63.45
82657;BME280;72357;52.110;5.252;2023-08-31T04:27:49;100821.0;;;17.82;63.41
82657;BME280;72357;52.110;5.252;2023-08-31T04:29:25;100821.0;;;17.75;63.75
82657;BME280;72357;52.110;5.252;2023-08-31T04:31:04;100822.0;;;17.8;63.58
82657;BME280;72357;52.110;5.252;2023-08-31T04:34:17;100822.0;;;17.84;63.6
82657;BME280;72357;52.110;5.252;2023-08-31T04:35:53;100830.0;;;17.79;63.74
82657;BME280;72357;52.110;5.252;2023-08-31T04:37:29;100831.0;;;17.68;64.24
82657;BME280;72357;52.110;5.252;2023-08-31T04:40:42;100845.0;;;18.0;63.3
82657;BME280;72357;52.110;5.252;2023-08-31T04:42:17;100845.0;;;17.87;63.71
82657;BME280;72357;52.110;5.252;2023-08-31T04:43:54;100850.0;;;18.07;63.17
82657;BME280;72357;52.110;5.252;2023-08-31T04:45:30;100855.0;;;17.75;64.2
82657;BME280;72357;52.110;5.252;2023-08-31T04:48:42;100855.0;;;17.66;64.66
82657;BME280;72357;52.110;5.252;2023-08-31T04:50:18;100859.0;;;17.64;64.77
82657;BME280;72357;52.110;5.252;2023-08-31T04:51:56;100868.0;;;17.7;64.77
82657;BME280;72357;52.110;5.252;2023-08-31T04:55:08;100864.0;;;17.68;64.8
82657;BME280;72357;52.110;5.252;2023-08-31T04:56:44;100863.0;;;17.84;64.28
82657;BME280;72357;52.110;5.252;2023-08-31T04:58:21;100859.0;;;17.82;64.35
82657;BME280;72357;52.110;5.252;2023-08-31T05:01:33;100861.0;;;17.79;64.55
82657;BME280;72357;52.110;5.252;2023-08-31T05:04:45;100861.0;;;17.8;64.62
82657;BME280;72357;52.110;5.252;2023-08-31T05:07:58;100860.0;;;17.95;64.23
82657;BME280;72357;52.110;5.252;2023-08-31T05:09:34;100855.0;;;17.68;65.02
82657;BME280;72357;52.110;5.252;2023-08-31T05:11:10;100857.0;;;17.8;64.77
82657;BME280;72357;52.110;5.252;2023-08-31T05:12:46;100861.0;;;17.97;64.23
82657;BME280;72357;52.110;5.252;2023-08-31T05:15:59;100863.0;;;17.87;64.55
82657;BME280;72357;52.110;5.252;2023-08-31T05:17:35;100861.0;;;18.16;63.67
82657;BME280;72357;52.110;5.252;2023-08-31T05:19:11;100867.0;;;18.07;63.96
82657;BME280;72357;52.110;5.252;2023-08-31T05:22:24;100872.0;;;18.07;63.97
82657;BME280;72357;52.110;5.252;2023-08-31T05:24:01;100875.0;;;18.02;64.16
82657;BME280;72357;52.110;5.252;2023-08-31T05:25:41;100868.0;;;18.09;63.91
82657;BME280;72357;52.110;5.252;2023-08-31T05:28:54;100875.0;;;18.09;63.8
82657;BME280;72357;52.110;5.252;2023-08-31T05:30:31;100878.0;;;18.14;63.61
82657;BME280;72357;52.110;5.252;2023-08-31T05:32:07;100880.0;;;18.03;63.87
82657;BME280;72357;52.110;5.252;2023-08-31T05:33:43;100880.0;;;18.02;63.79
82657;BME280;72357;52.110;5.252;2023-08-31T05:36:56;100874.0;;;18.03;63.72
82657;BME280;72357;52.110;5.252;2023-08-31T05:38:32;100873.0;;;18.02;63.75
82657;BME280;72357;52.110;5.252;2023-08-31T05:40:09;100875.0;;;18.05;63.63
82657;BME280;72357;52.110;5.252;2023-08-31T05:43:22;100877.0;;;18.07;63.63
82657;BME280;72357;52.110;5.252;2023-08-31T05:44:58;100874.0;;;18.07;63.67
82657;BME280;72357;52.110;5.252;2023-08-31T05:46:34;100873.0;;;18.0;63.86
82657;BME280;72357;52.110;5.252;2023-08-31T05:49:47;100888.0;;;17.89;64.3
82657;BME280;72357;52.110;5.252;2023-08-31T05:51:23;100911.0;;;17.86;64.58
82657;BME280;72357;52.110;5.252;2023-08-31T05:52:59;100917.0;;;17.89;64.66
82657;BME280;72357;52.110;5.252;2023-08-31T05:54:35;100919.0;;;17.48;65.52
82657;BME280;72357;52.110;5.252;2023-08-31T05:57:47;100925.0;;;17.64;65.03
82657;BME280;72357;52.110;5.252;2023-08-31T05:59:23;100919.0;;;17.75;65.0
82657;BME280;72357;52.110;5.252;2023-08-31T06:01:00;100919.0;;;18.0;64.47
82657;BME280;72357;52.110;5.252;2023-08-31T06:04:11;100918.0;;;18.0;64.45
82657;BME280;72357;52.110;5.252;2023-08-31T06:05:47;100922.0;;;18.0;64.58
82657;BME280;72357;52.110;5.252;2023-08-31T06:07:24;100927.0;;;18.11;64.35
82657;BME280;72357;52.110;5.252;2023-08-31T06:10:36;100927.0;;;18.13;64.27
82657;BME280;72357;52.110;5.252;2023-08-31T06:12:12;100928.0;;;18.09;64.35
82657;BME280;72357;52.110;5.252;2023-08-31T06:13:48;100928.0;;;18.23;63.96
82657;BME280;72357;52.110;5.252;2023-08-31T06:17:01;100926.0;;;18.25;64.11
82657;BME280;72357;52.110;5.252;2023-08-31T06:18:37;100927.0;;;18.18;64.13
82657;BME280;72357;52.110;5.252;2023-08-31T06:20:13;100936.0;;;18.13;64.49
82657;BME280;72357;52.110;5.252;2023-08-31T06:21:49;100939.0;;;18.16;64.53
82657;BME280;72357;52.110;5.252;2023-08-31T06:25:02;100947.0;;;18.14;64.56
82657;BME280;72357;52.110;5.252;2023-08-31T06:26:39;100933.0;;;18.2;64.53
82657;BME280;72357;52.110;5.252;2023-08-31T06:28:15;100930.0;;;18.16;64.58
82657;BME280;72357;52.110;5.252;2023-08-31T06:31:27;100928.0;;;18.27;64.23
82657;BME280;72357;52.110;5.252;2023-08-31T06:33:04;100936.0;;;18.34;64.3
82657;BME280;72357;52.110;5.252;2023-08-31T06:34:40;100942.0;;;18.47;63.91
82657;BME280;72357;52.110;5.252;2023-08-31T06:37:53;100946.0;;;18.31;64.48
82657;BME280;72357;52.110;5.252;2023-08-31T06:39:29;100939.0;;;18.31;64.3
82657;BME280;72357;52.110;5.252;2023-08-31T06:41:05;100930.0;;;18.46;63.95
82657;BME280;72357;52.110;5.252;2023-08-31T06:42:41;100930.0;;;18.54;63.77
82657;BME280;72357;52.110;5.252;2023-08-31T06:45:54;100927.0;;;18.47;64.02
82657;BME280;72357;52.110;5.252;2023-08-31T06:47:29;100930.0;;;18.5;63.95
82657;BME280;72357;52.110;5.252;2023-08-31T06:49:05;100930.0;;;18.5;64.02
82657;BME280;72357;52.110;5.252;2023-08-31T06:52:18;100931.0;;;18.59;63.87
82657;BME280;72357;52.110;5.252;2023-08-31T06:53:54;100937.0;;;18.68;63.78
82657;BME280;72357;52.110;5.252;2023-08-31T06:55:30;100938.0;;;18.75;63.87
82657;BME280;72357;52.110;5.252;2023-08-31T06:58:43;100938.0;;;18.86;63.89
82657;BME280;72357;52.110;5.252;2023-08-31T07:00:19;100944.0;;;18.93;63.83
82657;BME280;72357;52.110;5.252;2023-08-31T07:01:55;100951.0;;;19.11;63.57
82657;BME280;72357;52.110;5.252;2023-08-31T07:05:09;100949.0;;;19.12;63.93
82657;BME280;72357;52.110;5.252;2023-08-31T07:06:47;100953.0;;;19.22;63.66
82657;BME280;72357;52.110;5.252;2023-08-31T07:08:23;100958.0;;;19.12;63.86
82657;BME280;72357;52.110;5.252;2023-08-31T07:09:59;100960.0;;;19.07;63.83
82657;BME280;72357;52.110;5.252;2023-08-31T07:13:11;100955.0;;;19.05;64.09
82657;BME280;72357;52.110;5.252;2023-08-31T07:14:47;100956.0;;;19.02;64.22
82657;BME280;72357;52.110;5.252;2023-08-31T07:16:23;100959.0;;;18.96;64.3
82657;BME280;72357;52.110;5.252;2023-08-31T07:19:36;100959.0;;;19.02;64.27
82657;BME280;72357;52.110;5.252;2023-08-31T07:21:13;100964.0;;;19.06;64.0
82657;BME280;72357;52.110;5.252;2023-08-31T07:22:49;100964.0;;;19.16;63.95
82657;BME280;72357;52.110;5.252;2023-08-31T07:26:01;100966.0;;;19.21;64.02
82657;BME280;72357;52.110;5.252;2023-08-31T07:27:37;100973.0;;;19.27;63.96
82657;BME280;72357;52.110;5.252;2023-08-31T07:29:13;100971.0;;;19.28;63.81
82657;BME280;72357;52.110;5.252;2023-08-31T07:30:49;100975.0;;;19.31;63.82
82657;BME280;72357;52.110;5.252;2023-08-31T07:34:01;100969.0;;;19.3;64.16
82657;BME280;72357;52.110;5.252;2023-08-31T07:35:37;100973.0;;;19.61;63.82
82657;BME280;72357;52.110;5.252;2023-08-31T07:37:13;100972.0;;;19.7;63.84
82657;BME280;72357;52.110;5.252;2023-08-31T07:40:26;100984.0;;;19.7;64.16
82657;BME280;72357;52.110;5.252;2023-08-31T07:42:02;100987.0;;;19.72;63.89
82657;BME280;72357;52.110;5.252;2023-08-31T07:43:38;100987.0;;;19.75;63.14
82657;BME280;72357;52.110;5.252;2023-08-31T07:46:50;100980.0;;;19.66;63.07
82657;BME280;72357;52.110;5.252;2023-08-31T07:48:26;100989.0;;;19.7;63.22
82657;BME280;72357;52.110;5.252;2023-08-31T07:50:02;100978.0;;;19.68;63.62
82657;BME280;72357;52.110;5.252;2023-08-31T07:53:14;100976.0;;;19.57;63.7
82657;BME280;72357;52.110;5.252;2023-08-31T07:54:50;100981.0;;;19.62;63.62
82657;BME280;72357;52.110;5.252;2023-08-31T07:56:26;100987.0;;;19.66;63.49
82657;BME280;72357;52.110;5.252;2023-08-31T07:58:02;100982.0;;;19.59;63.72
82657;BME280;72357;52.110;5.252;2023-08-31T08:01:14;100990.0;;;19.82;63.21
82657;BME280;72357;52.110;5.252;2023-08-31T08:02:50;100993.0;;;19.87;63.29
82657;BME280;72357;52.110;5.252;2023-08-31T08:04:26;100992.0;;;20.02;63.4
82657;BME280;72357;52.110;5.252;2023-08-31T08:07:39;100995.0;;;20.09;63.59
82657;BME280;72357;52.110;5.252;2023-08-31T08:09:15;100997.0;;;20.27;63.48
82657;BME280;72357;52.110;5.252;2023-08-31T08:10:52;101001.0;;;20.45;63.33
82657;BME280;72357;52.110;5.252;2023-08-31T08:14:13;101003.0;;;20.48;63.62
82657;BME280;72357;52.110;5.252;2023-08-31T08:15:49;100999.0;;;20.51;63.2
82657;BME280;72357;52.110;5.252;2023-08-31T08:17:25;101001.0;;;20.57;63.17
82657;BME280;72357;52.110;5.252;2023-08-31T08:20:37;101000.0;;;20.79;62.76
82657;BME280;72357;52.110;5.252;2023-08-31T08:22:14;101000.0;;;21.01;62.83
82657;BME280;72357;52.110;5.252;2023-08-31T08:23:50;101003.0;;;21.05;63.21
82657;BME280;72357;52.110;5.252;2023-08-31T08:27:02;101003.0;;;21.01;63.26
82657;BME280;72357;52.110;5.252;2023-08-31T08:28:38;101003.0;;;20.99;63.31
82657;BME280;72357;52.110;5.252;2023-08-31T08:30:14;101001.0;;;21.12;62.98
82657;BME280;72357;52.110;5.252;2023-08-31T08:33:26;101002.0;;;21.15;63.07
82657;BME280;72357;52.110;5.252;2023-08-31T08:35:04;101008.0;;;21.21;62.95
82657;BME280;72357;52.110;5.252;2023-08-31T08:36:40;101011.0;;;20.99;63.07
82657;BME280;72357;52.110;5.252;2023-08-31T08:38:17;101017.0;;;21.53;63.29
82657;BME280;72357;52.110;5.252;2023-08-31T08:41:29;101018.0;;;21.44;63.12
82657;BME280;72357;52.110;5.252;2023-08-31T08:43:07;101017.0;;;21.73;62.89
82657;BME280;72357;52.110;5.252;2023-08-31T08:44:44;101017.0;;;21.95;63.32
82657;BME280;72357;52.110;5.252;2023-08-31T08:47:58;101020.0;;;22.03;61.52
82657;BME280;72357;52.110;5.252;2023-08-31T08:49:35;101022.0;;;22.14;62.2
82657;BME280;72357;52.110;5.252;2023-08-31T08:51:12;101017.0;;;22.31;61.64
82657;BME280;72357;52.110;5.252;2023-08-31T08:54:27;101012.0;;;22.4;62.65
82657;BME280;72357;52.110;5.252;2023-08-31T08:56:04;101014.0;;;22.53;61.6
82657;BME280;72357;52.110;5.252;2023-08-31T08:57:40;101017.0;;;22.82;62.47
82657;BME280;72357;52.110;5.252;2023-08-31T08:59:16;101021.0;;;22.95;61.52
82657;BME280;72357;52.110;5.252;2023-08-31T09:02:30;101020.0;;;22.99;60.64
82657;BME280;72357;52.110;5.252;2023-08-31T09:04:06;101021.0;;;23.09;60.6
82657;BME280;72357;52.110;5.252;2023-08-31T09:05:45;101015.0;;;22.85;60.67
82657;BME280;72357;52.110;5.252;2023-08-31T09:08:57;101015.0;;;22.97;59.59
82657;BME280;72357;52.110;5.252;2023-08-31T09:10:35;101017.0;;;22.67;60.54
82657;BME280;72357;52.110;5.252;2023-08-31T09:12:11;101016.0;;;22.42;60.46
82657;BME280;72357;52.110;5.252;2023-08-31T09:15:24;101021.0;;;22.13;60.89
82657;BME280;72357;52.110;5.252;2023-08-31T09:17:01;101025.0;;;21.69;60.36
82657;BME280;72357;52.110;5.252;2023-08-31T09:18:38;101021.0;;;21.68;60.74
82657;BME280;72357;52.110;5.252;2023-08-31T09:20:14;101024.0;;;21.59;61.56
82657;BME280;72357;52.110;5.252;2023-08-31T09:23:28;101033.0;;;21.39;61.77
82657;BME280;72357;52.110;5.252;2023-08-31T09:25:05;101024.0;;;21.19;61.75
82657;BME280;72357;52.110;5.252;2023-08-31T09:26:43;101032.0;;;21.06;62.25
82657;BME280;72357;52.110;5.252;2023-08-31T09:29:58;101030.0;;;21.34;62.41
82657;BME280;72357;52.110;5.252;2023-08-31T09:31:34;101030.0;;;21.36;63.04
82657;BME280;72357;52.110;5.252;2023-08-31T09:33:14;101036.0;;;21.32;62.47
82657;BME280;72357;52.110;5.252;2023-08-31T09:34:53;101031.0;;;21.4;62.7
82657;BME280;72357;52.110;5.252;2023-08-31T09:38:07;101038.0;;;21.48;62.21
82657;BME280;72357;52.110;5.252;2023-08-31T09:39:44;101035.0;;;21.8;62.89
82657;BME280;72357;52.110;5.252;2023-08-31T09:41:20;101031.0;;;22.27;61.79
82657;BME280;72357;52.110;5.252;2023-08-31T09:44:32;101036.0;;;22.29;62.72
82657;BME280;72357;52.110;5.252;2023-08-31T09:46:09;101030.0;;;22.62;61.35
82657;BME280;72357;52.110;5.252;2023-08-31T09:47:45;101030.0;;;22.85;61.7
82657;BME280;72357;52.110;5.252;2023-08-31T09:51:03;101020.0;;;22.62;58.44
82657;BME280;72357;52.110;5.252;2023-08-31T09:52:40;101015.0;;;22.47;60.4
82657;BME280;72357;52.110;5.252;2023-08-31T09:54:17;101018.0;;;22.51;61.19
82657;BME280;72357;52.110;5.252;2023-08-31T09:55:56;101021.0;;;23.01;62.7
82657;BME280;72357;52.110;5.252;2023-08-31T09:59:12;101020.0;;;23.03;60.0
82657;BME280;72357;52.110;5.252;2023-08-31T10:00:49;101022.0;;;23.05;59.72
82657;BME280;72357;52.110;5.252;2023-08-31T10:02:27;101025.0;;;23.06;58.81
82657;BME280;72357;52.110;5.252;2023-08-31T10:04:06;101024.0;;;23.34;56.66
82657;BME280;72357;52.110;5.252;2023-08-31T10:07:21;101030.0;;;23.21;58.5
82657;BME280;72357;52.110;5.252;2023-08-31T10:08:57;101033.0;;;22.82;58.74
82657;BME280;72357;52.110;5.252;2023-08-31T10:10:34;101032.0;;;22.76;58.67
82657;BME280;72357;52.110;5.252;2023-08-31T10:13:50;101034.0;;;22.81;58.25
82657;BME280;72357;52.110;5.252;2023-08-31T10:15:31;101040.0;;;23.12;60.36
82657;BME280;72357;52.110;5.252;2023-08-31T10:17:08;101027.0;;;22.9;59.39
82657;BME280;72357;52.110;5.252;2023-08-31T10:18:44;101024.0;;;22.79;56.49
82657;BME280;72357;52.110;5.252;2023-08-31T10:21:57;101030.0;;;22.8;57.65
82657;BME280;72357;52.110;5.252;2023-08-31T10:23:33;101028.0;;;22.86;57.59
82657;BME280;72357;52.110;5.252;2023-08-31T10:25:09;101032.0;;;23.04;57.82
82657;BME280;72357;52.110;5.252;2023-08-31T10:28:24;101030.0;;;22.77;58.94
82657;BME280;72357;52.110;5.252;2023-08-31T10:30:13;101021.0;;;22.64;54.68
82657;BME280;72357;52.110;5.252;2023-08-31T10:31:49;101026.0;;;22.53;55.84
82657;BME280;72357;52.110;5.252;2023-08-31T10:33:25;101023.0;;;22.57;54.53
82657;BME280;72357;52.110;5.252;2023-08-31T10:36:45;101031.0;;;22.96;54.3
82657;BME280;72357;52.110;5.252;2023-08-31T10:38:25;101023.0;;;22.62;55.9
82657;BME280;72357;52.110;5.252;2023-08-31T10:40:10;101030.0;;;22.52;55.79
82657;BME280;72357;52.110;5.252;2023-08-31T10:41:52;101034.0;;;22.33;53.59
82657;BME280;72357;52.110;5.252;2023-08-31T10:45:20;101032.0;;;22.13;47.07
82657;BME280;72357;52.110;5.252;2023-08-31T10:46:59;101034.0;;;22.47;54.86
82657;BME280;72357;52.110;5.252;2023-08-31T10:48:49;101037.0;;;22.63;51.32
82657;BME280;72357;52.110;5.252;2023-08-31T10:50:26;101028.0;;;23.0;52.69
82657;BME280;72357;52.110;5.252;2023-08-31T10:53:59;101036.0;;;22.99;55.09
82657;BME280;72357;52.110;5.252;2023-08-31T10:55:50;101036.0;;;23.14;55.37
82657;BME280;72357;52.110;5.252;2023-08-31T10:57:29;101033.0;;;23.39;51.51
82657;BME280;72357;52.110;5.252;2023-08-31T10:59:07;101036.0;;;23.16;52.82
82657;BME280;72357;52.110;5.252;2023-08-31T11:00:47;101031.0;;;22.89;49.84
82657;BME280;72357;52.110;5.252;2023-08-31T11:04:10;101030.0;;;23.61;53.22
82657;BME280;72357;52.110;5.252;2023-08-31T11:05:53;101034.0;;;23.28;51.83
82657;BME280;72357;52.110;5.252;2023-08-31T11:07:30;101034.0;;;23.69;51.66